createdAt,value
2023-05-11T00:01:43.989Z,7.88
2023-05-11T00:04:10.349Z,7.87
2023-05-11T00:06:37.364Z,7.87
2023-05-11T00:09:03.819Z,7.84
2023-05-11T00:11:30.251Z,7.82
2023-05-11T00:13:56.566Z,7.80
2023-05-11T00:16:22.898Z,7.82
2023-05-11T00:18:49.282Z,7.81
2023-05-11T00:21:15.670Z,7.85
2023-05-11T00:23:42.624Z,7.85
2023-05-11T00:26:08.965Z,7.85
2023-05-11T00:28:35.322Z,7.85
2023-05-11T00:31:01.719Z,7.85
2023-05-11T00:33:28.027Z,7.87
2023-05-11T00:35:54.320Z,7.90
2023-05-11T00:38:20.738Z,7.90
2023-05-11T00:40:48.541Z,7.84
2023-05-11T00:43:14.824Z,7.88
2023-05-11T00:45:41.348Z,7.88
2023-05-11T00:48:07.978Z,7.87
2023-05-11T00:50:34.922Z,7.90
2023-05-11T00:53:01.525Z,7.87
2023-05-11T00:55:28.030Z,7.92
2023-05-11T00:57:55.117Z,7.88
2023-05-11T01:00:21.661Z,7.87
2023-05-11T01:02:48.396Z,7.83
2023-05-11T01:05:15.306Z,7.84
2023-05-11T01:07:50.327Z,7.88
2023-05-11T01:10:23.449Z,7.85
2023-05-11T01:13:00.894Z,7.82
2023-05-11T01:15:36.179Z,7.83
2023-05-11T01:18:15.308Z,7.82
2023-05-11T01:20:46.394Z,7.87
2023-05-11T01:23:44.285Z,7.85
2023-05-11T01:26:29.986Z,7.86
2023-05-11T01:29:14.759Z,7.91
2023-05-11T01:31:43.994Z,7.87
2023-05-11T01:34:15.847Z,7.93
2023-05-11T01:36:48.862Z,7.87
2023-05-11T01:39:17.183Z,7.95
2023-05-11T01:41:51.049Z,7.96
2023-05-11T01:44:19.228Z,7.93
2023-05-11T01:46:48.003Z,7.89
2023-05-11T01:49:17.027Z,7.96
2023-05-11T01:51:45.342Z,7.93
2023-05-11T01:54:12.336Z,7.89
2023-05-11T01:56:41.047Z,7.91
2023-05-11T01:59:08.968Z,7.86
2023-05-11T02:01:36.109Z,7.87
2023-05-11T02:04:05.351Z,7.87
2023-05-11T02:06:34.025Z,7.91
2023-05-11T02:09:01.377Z,7.87
2023-05-11T02:11:29.980Z,7.84
2023-05-11T02:13:58.024Z,7.82
2023-05-11T02:16:27.195Z,7.83
2023-05-11T02:18:55.300Z,7.85
2023-05-11T02:21:23.386Z,7.83
2023-05-11T02:23:51.395Z,7.84
2023-05-11T02:26:17.983Z,7.86
2023-05-11T02:28:44.608Z,7.88
2023-05-11T02:31:17.246Z,7.94
2023-05-11T02:33:47.105Z,7.96
2023-05-11T02:36:17.493Z,7.93
2023-05-11T02:38:46.495Z,7.84
2023-05-11T02:41:17.369Z,7.84
2023-05-11T02:43:47.911Z,7.84
2023-05-11T02:46:18.575Z,7.83
2023-05-11T02:48:50.508Z,7.77
2023-05-11T02:51:18.686Z,7.78
2023-05-11T02:53:46.896Z,7.75
2023-05-11T02:56:13.801Z,7.69
2023-05-11T02:58:40.553Z,7.71
2023-05-11T03:01:07.525Z,7.73
2023-05-11T03:03:34.108Z,7.69
2023-05-11T03:06:00.516Z,7.64
2023-05-11T03:08:27.090Z,7.58
2023-05-11T03:10:54.616Z,7.59
2023-05-11T03:13:23.690Z,7.55
2023-05-11T03:15:50.950Z,7.55
2023-05-11T03:18:18.394Z,7.56
2023-05-11T03:20:46.782Z,7.56
2023-05-11T03:23:16.150Z,7.53
2023-05-11T03:25:43.948Z,7.53
2023-05-11T03:28:12.291Z,7.46
2023-05-11T03:30:40.135Z,7.47
2023-05-11T03:33:06.634Z,7.43
2023-05-11T03:35:34.665Z,7.42
2023-05-11T03:38:02.154Z,7.41
2023-05-11T03:40:30.739Z,7.39
2023-05-11T03:42:59.414Z,7.45
2023-05-11T03:45:30.665Z,7.43
2023-05-11T03:47:57.346Z,7.39
2023-05-11T03:50:24.069Z,7.33
2023-05-11T03:52:51.741Z,7.33
2023-05-11T03:55:18.167Z,7.35
2023-05-11T03:57:45.557Z,7.33
2023-05-11T04:00:12.622Z,7.33
2023-05-11T04:02:40.451Z,7.30
2023-05-11T04:05:08.047Z,7.32
2023-05-11T04:07:35.718Z,7.32
2023-05-11T04:10:02.771Z,7.24
2023-05-11T04:12:29.119Z,7.27
2023-05-11T04:14:55.434Z,7.32
2023-05-11T04:17:21.728Z,7.29
2023-05-11T04:19:48.659Z,7.31
2023-05-11T04:22:15.027Z,7.29
2023-05-11T04:24:41.327Z,7.29
2023-05-11T04:27:07.632Z,7.26
2023-05-11T04:29:34.152Z,7.24
2023-05-11T04:32:00.548Z,7.29
2023-05-11T04:34:26.927Z,7.24
2023-05-11T04:36:53.834Z,7.31
2023-05-11T04:39:20.625Z,7.25
2023-05-11T04:41:47.046Z,7.18
2023-05-11T04:44:13.288Z,7.15
2023-05-11T04:46:39.614Z,7.18
2023-05-11T04:49:06.312Z,7.13
2023-05-11T04:51:32.739Z,7.20
2023-05-11T04:53:59.835Z,7.17
2023-05-11T04:56:26.133Z,7.16
2023-05-11T04:58:52.484Z,7.16
2023-05-11T05:01:18.931Z,7.15
2023-05-11T05:03:48.176Z,7.21
2023-05-11T05:06:14.534Z,7.21
2023-05-11T05:08:40.861Z,7.19
2023-05-11T05:11:09.256Z,7.25
2023-05-11T05:13:35.544Z,7.23
2023-05-11T05:16:02.036Z,7.28
2023-05-11T05:18:28.376Z,7.29
2023-05-11T05:20:54.909Z,7.24
2023-05-11T05:23:21.615Z,7.23
2023-05-11T05:25:47.913Z,7.23
2023-05-11T05:28:14.869Z,7.29
2023-05-11T05:30:41.262Z,7.30
2023-05-11T05:33:07.598Z,7.23
2023-05-11T05:35:33.903Z,7.25
2023-05-11T05:38:00.223Z,7.26
2023-05-11T05:40:26.729Z,7.26
2023-05-11T05:42:53.096Z,7.26
2023-05-11T05:45:20.497Z,7.30
2023-05-11T05:47:48.341Z,7.23
2023-05-11T05:50:15.079Z,7.22
2023-05-11T05:52:41.441Z,7.33
2023-05-11T05:55:08.486Z,7.27
2023-05-11T05:57:34.861Z,7.24
2023-05-11T06:00:01.203Z,7.23
2023-05-11T06:02:28.256Z,7.19
2023-05-11T06:04:54.721Z,7.25
2023-05-11T06:07:21.074Z,7.26
2023-05-11T06:09:47.374Z,7.23
2023-05-11T06:12:15.367Z,7.27
2023-05-11T06:14:41.688Z,7.23
2023-05-11T06:17:07.993Z,7.28
2023-05-11T06:19:35.003Z,7.24
2023-05-11T06:22:01.740Z,7.33
2023-05-11T06:24:28.966Z,7.28
2023-05-11T06:26:55.230Z,7.25
2023-05-11T06:29:21.703Z,7.24
2023-05-11T06:31:51.952Z,7.31
2023-05-11T06:34:19.016Z,7.39
2023-05-11T06:36:46.024Z,7.42
2023-05-11T06:39:12.431Z,7.37
2023-05-11T06:41:38.896Z,7.34
2023-05-11T06:44:05.552Z,7.40
2023-05-11T06:46:31.936Z,7.38
2023-05-11T06:48:58.340Z,7.26
2023-05-11T06:51:24.651Z,7.36
2023-05-11T06:53:51.592Z,7.36
2023-05-11T06:56:17.893Z,7.42
2023-05-11T06:58:44.193Z,7.47
2023-05-11T07:01:11.126Z,7.50
2023-05-11T07:03:37.442Z,7.41
2023-05-11T07:06:04.417Z,7.46
2023-05-11T07:08:30.718Z,7.45
2023-05-11T07:10:57.682Z,7.37
2023-05-11T07:13:24.009Z,7.36
2023-05-11T07:15:50.370Z,7.36
2023-05-11T07:18:16.721Z,7.35
2023-05-11T07:20:43.041Z,7.41
2023-05-11T07:23:09.626Z,7.45
2023-05-11T07:25:36.143Z,7.50
2023-05-11T07:28:03.142Z,7.48
2023-05-11T07:30:29.447Z,7.48
2023-05-11T07:32:55.950Z,7.50
2023-05-11T07:35:24.018Z,7.47
2023-05-11T07:37:50.674Z,7.55
2023-05-11T07:40:17.558Z,7.71
2023-05-11T07:42:44.128Z,7.81
2023-05-11T07:45:11.589Z,7.88
2023-05-11T07:47:37.957Z,7.80
2023-05-11T07:50:05.407Z,7.88
2023-05-11T07:52:31.808Z,7.89
2023-05-11T07:54:58.163Z,7.77
2023-05-11T07:57:24.473Z,7.92
2023-05-11T07:59:50.817Z,7.94
2023-05-11T08:02:18.457Z,8.00
2023-05-11T08:04:45.077Z,8.09
2023-05-11T08:07:11.532Z,8.16
2023-05-11T08:09:38.058Z,8.08
2023-05-11T08:12:04.568Z,8.06
2023-05-11T08:14:31.503Z,8.05
2023-05-11T08:16:57.943Z,8.11
2023-05-11T08:19:24.969Z,8.23
2023-05-11T08:21:51.749Z,8.06
2023-05-11T08:24:18.155Z,8.15
2023-05-11T08:26:44.562Z,8.25
2023-05-11T08:29:11.663Z,8.26
2023-05-11T08:31:38.803Z,8.47
2023-05-11T08:34:15.408Z,8.42
2023-05-11T08:36:46.039Z,8.57
2023-05-11T08:39:12.514Z,8.59
2023-05-11T08:41:38.820Z,8.64
2023-05-11T08:44:06.585Z,8.61
2023-05-11T08:46:35.451Z,8.66
2023-05-11T08:49:02.217Z,8.79
2023-05-11T08:51:28.804Z,8.85
2023-05-11T08:53:57.002Z,8.75
2023-05-11T08:56:26.072Z,8.84
2023-05-11T08:58:56.073Z,8.76
2023-05-11T09:01:23.408Z,8.83
2023-05-11T09:03:51.091Z,8.61
2023-05-11T09:06:18.294Z,8.55
2023-05-11T09:08:45.666Z,8.75
2023-05-11T09:11:13.010Z,8.61
2023-05-11T09:13:39.731Z,8.70
2023-05-11T09:16:13.777Z,8.86
2023-05-11T09:18:47.224Z,8.91
2023-05-11T09:21:13.645Z,8.92
2023-05-11T09:23:40.846Z,8.94
2023-05-11T09:26:14.401Z,8.96
2023-05-11T09:31:40.666Z,8.82
2023-05-11T09:34:15.122Z,8.87
2023-05-11T09:36:42.255Z,8.92
2023-05-11T09:41:41.847Z,9.08
2023-05-11T09:44:10.200Z,9.21
2023-05-11T09:46:37.532Z,9.40
2023-05-11T09:49:05.747Z,9.35
2023-05-11T09:51:33.929Z,9.34
2023-05-11T09:54:01.805Z,9.26
2023-05-11T09:56:47.817Z,9.08
2023-05-11T09:59:17.360Z,9.16
2023-05-11T10:01:43.787Z,9.29
2023-05-11T10:04:23.084Z,9.37
2023-05-11T10:06:52.641Z,9.40
2023-05-11T10:09:22.868Z,9.36
2023-05-11T10:11:51.442Z,9.38
2023-05-11T10:14:18.883Z,9.27
2023-05-11T10:16:47.127Z,9.11
2023-05-11T10:19:13.862Z,9.07
2023-05-11T10:21:40.921Z,9.12
2023-05-11T10:24:08.261Z,9.20
2023-05-11T10:26:34.751Z,9.27
2023-05-11T10:29:02.051Z,9.23
2023-05-11T10:31:29.048Z,9.30
2023-05-11T10:33:56.585Z,9.36
2023-05-11T10:36:24.591Z,9.34
2023-05-11T10:38:50.991Z,9.18
2023-05-11T10:41:30.961Z,9.09
2023-05-11T10:44:26.359Z,9.15
2023-05-11T10:47:10.273Z,9.20
2023-05-11T10:49:51.654Z,9.26
2023-05-11T10:52:38.387Z,9.30
2023-05-11T10:55:17.701Z,9.35
2023-05-11T10:58:02.890Z,9.30
2023-05-11T11:00:59.326Z,9.32
2023-05-11T11:03:25.647Z,9.30
2023-05-11T11:05:54.650Z,9.34
2023-05-11T11:08:21.008Z,9.51
2023-05-11T11:10:48.687Z,9.36
2023-05-11T11:13:16.580Z,9.31
2023-05-11T11:16:08.505Z,9.40
2023-05-11T11:18:34.923Z,9.37
2023-05-11T11:21:01.657Z,9.36
2023-05-11T11:23:41.541Z,9.40
2023-05-11T11:26:09.225Z,9.54
2023-05-11T11:29:08.998Z,9.75
2023-05-11T11:31:36.988Z,9.67
2023-05-11T11:34:33.035Z,9.63
2023-05-11T11:37:03.350Z,9.52
2023-05-11T11:39:49.595Z,9.48
2023-05-11T11:42:17.588Z,9.54
2023-05-11T11:44:45.783Z,9.56
2023-05-11T11:47:13.973Z,9.29
2023-05-11T11:49:42.498Z,9.37
2023-05-11T11:52:11.645Z,9.38
2023-05-11T11:54:38.959Z,9.49
2023-05-11T11:57:28.655Z,9.60
2023-05-11T11:59:55.734Z,9.45
2023-05-11T12:02:24.163Z,9.51
2023-05-11T12:04:56.055Z,9.58
2023-05-11T12:07:25.497Z,9.75
2023-05-11T12:09:52.734Z,9.80
2023-05-11T12:12:20.358Z,9.85
2023-05-11T12:14:48.426Z,9.83
2023-05-11T12:17:16.205Z,9.87
2023-05-11T12:19:46.953Z,9.87
2023-05-11T12:22:15.410Z,9.79
2023-05-11T12:24:42.946Z,9.64
2023-05-11T12:27:09.686Z,9.57
2023-05-11T12:29:36.119Z,9.62
2023-05-11T12:32:02.525Z,9.46
2023-05-11T12:34:28.863Z,9.34
2023-05-11T12:36:57.709Z,9.41
2023-05-11T12:39:27.119Z,9.38
2023-05-11T12:41:55.747Z,9.43
2023-05-11T12:44:25.123Z,9.36
2023-05-11T12:46:52.056Z,9.41
2023-05-11T12:49:24.691Z,9.39
2023-05-11T12:52:00.339Z,9.47
2023-05-11T12:54:29.701Z,9.49
2023-05-11T12:56:56.192Z,9.68
2023-05-11T12:59:33.369Z,9.60
2023-05-11T13:02:15.713Z,9.59
2023-05-11T13:04:43.546Z,9.65
2023-05-11T13:07:11.041Z,9.68
2023-05-11T13:09:38.604Z,9.72
2023-05-11T13:12:16.764Z,9.70
2023-05-11T13:14:46.529Z,9.63
2023-05-11T13:17:13.281Z,9.72
2023-05-11T13:19:40.558Z,9.75
2023-05-11T13:22:10.546Z,9.68
2023-05-11T13:24:37.376Z,9.64
2023-05-11T13:27:04.894Z,9.69
2023-05-11T13:29:32.039Z,9.71
2023-05-11T13:31:58.454Z,9.77
2023-05-11T13:34:25.408Z,9.80
2023-05-11T13:36:51.836Z,9.74
2023-05-11T13:39:19.068Z,9.70
2023-05-11T13:41:46.130Z,9.78
2023-05-11T13:44:13.559Z,9.70
2023-05-11T13:46:39.987Z,9.68
2023-05-11T13:49:06.405Z,9.60
2023-05-11T13:51:32.996Z,9.44
2023-05-11T13:54:00.131Z,9.40
2023-05-11T13:56:26.778Z,9.38
2023-05-11T13:58:53.231Z,9.29
2023-05-11T14:01:21.366Z,9.34
2023-05-11T14:03:52.430Z,9.35
2023-05-11T14:06:21.562Z,9.35
2023-05-11T14:08:47.937Z,9.41
2023-05-11T14:11:14.303Z,9.49
2023-05-11T14:13:40.746Z,9.51
2023-05-11T14:16:09.239Z,9.60
2023-05-11T14:18:36.514Z,9.64
2023-05-11T14:21:03.133Z,9.68
2023-05-11T14:23:32.106Z,9.68
2023-05-11T14:25:58.567Z,9.80
2023-05-11T14:28:25.564Z,9.77
2023-05-11T14:30:52.033Z,9.86
2023-05-11T14:33:18.465Z,9.78
2023-05-11T14:35:47.401Z,9.70
2023-05-11T14:38:13.726Z,9.69
2023-05-11T14:40:40.084Z,9.59
2023-05-11T14:43:06.797Z,9.55
2023-05-11T14:45:33.389Z,9.58
2023-05-11T14:48:01.270Z,9.53
2023-05-11T14:50:28.166Z,9.45
2023-05-11T14:52:55.194Z,9.32
2023-05-11T14:55:21.621Z,9.29
2023-05-11T14:57:48.034Z,9.33
2023-05-11T15:00:15.362Z,9.37
2023-05-11T15:02:41.788Z,9.35
2023-05-11T15:05:09.004Z,9.30
2023-05-11T15:07:36.047Z,9.38
2023-05-11T15:10:03.758Z,9.43
2023-05-11T15:12:30.107Z,9.44
2023-05-11T15:14:56.477Z,9.27
2023-05-11T15:17:23.006Z,9.28
2023-05-11T15:19:49.428Z,9.30
2023-05-11T15:22:21.717Z,9.21
2023-05-11T15:24:48.089Z,9.30
2023-05-11T15:27:15.185Z,9.23
2023-05-11T15:29:42.054Z,9.21
2023-05-11T15:32:12.085Z,9.23
2023-05-11T15:34:50.832Z,9.21
2023-05-11T15:37:27.106Z,9.21
2023-05-11T15:39:53.513Z,9.25
2023-05-11T15:42:20.517Z,9.27
2023-05-11T15:44:46.966Z,9.28
2023-05-11T15:47:13.374Z,9.33
2023-05-11T15:49:39.723Z,9.35
2023-05-11T15:52:06.638Z,9.35
2023-05-11T15:54:35.242Z,9.35
2023-05-11T15:57:02.277Z,9.27
2023-05-11T15:59:31.762Z,9.37
2023-05-11T16:01:58.190Z,9.36
2023-05-11T16:04:24.689Z,9.33
2023-05-11T16:06:51.049Z,9.29
2023-05-11T16:09:17.595Z,9.31
2023-05-11T16:11:44.839Z,9.27
2023-05-11T16:14:11.627Z,9.26
2023-05-11T16:16:39.625Z,9.29
2023-05-11T16:19:06.408Z,9.22
2023-05-11T16:21:33.809Z,9.24
2023-05-11T16:24:00.129Z,9.28
2023-05-11T16:26:27.744Z,9.30
2023-05-11T16:28:54.116Z,9.29
2023-05-11T16:31:20.947Z,9.29
2023-05-11T16:33:48.589Z,9.31
2023-05-11T16:36:15.932Z,9.37
2023-05-11T16:38:42.303Z,9.38
2023-05-11T16:41:11.130Z,9.40
2023-05-11T16:43:44.118Z,9.37
2023-05-11T16:46:10.559Z,9.45
2023-05-11T16:48:37.425Z,9.48
2023-05-11T16:51:04.640Z,9.50
2023-05-11T16:53:31.221Z,9.53
2023-05-11T16:55:58.968Z,9.52
2023-05-11T16:58:25.663Z,9.50
2023-05-11T17:00:52.664Z,9.56
2023-05-11T17:03:20.677Z,9.53
2023-05-11T17:05:47.227Z,9.48
2023-05-11T17:08:14.484Z,9.43
2023-05-11T17:10:41.023Z,9.42
2023-05-11T17:13:07.394Z,9.43
2023-05-11T17:15:33.748Z,9.44
2023-05-11T17:18:00.176Z,9.43
2023-05-11T17:20:26.631Z,9.43
2023-05-11T17:22:53.014Z,9.52
2023-05-11T17:25:20.131Z,9.62
2023-05-11T17:27:46.574Z,9.49
2023-05-11T17:30:13.308Z,9.53
2023-05-11T17:32:44.087Z,9.53
2023-05-11T17:35:10.685Z,9.53
2023-05-11T17:37:37.048Z,9.47
2023-05-11T17:40:05.515Z,9.50
2023-05-11T17:42:33.989Z,9.46
2023-05-11T17:45:00.582Z,9.35
2023-05-11T17:47:26.966Z,9.20
2023-05-11T17:49:53.353Z,9.19
2023-05-11T17:52:19.715Z,9.23
2023-05-11T17:54:46.185Z,9.25
2023-05-11T17:57:12.634Z,9.24
2023-05-11T17:59:42.129Z,9.24
2023-05-11T18:02:08.744Z,9.28
2023-05-11T18:04:35.073Z,9.31
2023-05-11T18:07:01.396Z,9.31
2023-05-11T18:09:27.712Z,9.27
2023-05-11T18:11:54.069Z,9.24
2023-05-11T18:14:20.543Z,9.21
2023-05-11T18:16:48.596Z,9.15
2023-05-11T18:19:15.082Z,9.09
2023-05-11T18:21:41.781Z,9.04
2023-05-11T18:24:13.730Z,8.96
2023-05-11T18:26:40.150Z,8.95
2023-05-11T18:29:12.143Z,8.89
2023-05-11T18:31:39.010Z,8.86
2023-05-11T18:34:06.031Z,8.84
2023-05-11T18:36:32.782Z,8.80
2023-05-11T18:38:59.125Z,8.80
2023-05-11T18:41:28.282Z,8.77
2023-05-11T18:43:54.812Z,8.75
2023-05-11T18:46:21.324Z,8.75
2023-05-11T18:48:52.170Z,8.77
2023-05-11T18:51:21.897Z,8.81
2023-05-11T18:53:48.340Z,8.91
2023-05-11T18:56:15.303Z,8.92
2023-05-11T18:58:41.792Z,8.97
2023-05-11T19:01:08.951Z,9.04
2023-05-11T19:03:35.784Z,9.03
2023-05-11T19:06:02.670Z,9.01
2023-05-11T19:08:29.742Z,8.94
2023-05-11T19:10:56.918Z,8.92
2023-05-11T19:13:24.492Z,8.89
2023-05-11T19:15:50.948Z,8.86
2023-05-11T19:18:17.426Z,8.82
2023-05-11T19:20:43.849Z,8.83
2023-05-11T19:23:10.217Z,8.82
2023-05-11T19:25:37.323Z,8.79
2023-05-11T19:28:03.850Z,8.76
2023-05-11T19:30:30.268Z,8.77
2023-05-11T19:32:56.600Z,8.76
2023-05-11T19:35:23.261Z,8.72
2023-05-11T19:37:49.889Z,8.71
2023-05-11T19:42:48.986Z,8.72
2023-05-11T19:45:15.398Z,8.71
2023-05-11T19:47:41.835Z,8.77
2023-05-11T19:50:09.038Z,8.71
2023-05-11T19:52:35.972Z,8.71
2023-05-11T19:55:02.680Z,8.69
2023-05-11T19:57:30.476Z,8.66
2023-05-11T19:59:57.585Z,8.66
2023-05-11T20:02:24.010Z,8.61
2023-05-11T20:04:50.397Z,8.66
2023-05-11T20:07:18.932Z,8.67
2023-05-11T20:09:45.297Z,8.67
2023-05-11T20:12:11.720Z,8.61
2023-05-11T20:14:40.114Z,8.59
2023-05-11T20:17:08.599Z,8.63
2023-05-11T20:19:35.034Z,8.66
2023-05-11T20:22:01.687Z,8.62
2023-05-11T20:24:28.030Z,8.62
2023-05-11T20:26:54.685Z,8.57
2023-05-11T20:29:21.076Z,8.57
2023-05-11T20:31:47.621Z,8.58
2023-05-11T20:34:14.898Z,8.68
2023-05-11T20:36:41.258Z,8.72
2023-05-11T20:39:08.461Z,8.70
2023-05-11T20:41:35.047Z,8.64
2023-05-11T20:44:01.565Z,8.65
2023-05-11T20:46:28.398Z,8.63
2023-05-11T20:48:54.764Z,8.70
2023-05-11T20:51:22.547Z,8.61
2023-05-11T20:53:49.283Z,8.56
2023-05-11T20:56:15.590Z,8.57
2023-05-11T20:58:41.894Z,8.59
2023-05-11T21:01:08.234Z,8.57
2023-05-11T21:03:34.588Z,8.56
2023-05-11T21:06:00.958Z,8.59
2023-05-11T21:08:27.903Z,8.57
2023-05-11T21:10:54.284Z,8.58
2023-05-11T21:13:23.317Z,8.59
2023-05-11T21:15:49.887Z,8.58
2023-05-11T21:18:16.247Z,8.57
2023-05-11T21:20:42.909Z,8.54
2023-05-11T21:23:27.876Z,8.50
2023-05-11T21:25:55.599Z,8.50
2023-05-11T21:28:22.919Z,8.48
2023-05-11T21:30:49.260Z,8.47
2023-05-11T21:33:15.644Z,8.45
2023-05-11T21:35:41.989Z,8.44
2023-05-11T21:38:08.982Z,8.37
2023-05-11T21:40:35.339Z,8.34
2023-05-11T21:43:02.289Z,8.36
2023-05-11T21:45:28.636Z,8.41
2023-05-11T21:47:54.958Z,8.40
2023-05-11T21:50:21.611Z,8.43
2023-05-11T21:52:48.065Z,8.44
2023-05-11T21:55:14.353Z,8.47
2023-05-11T21:57:40.670Z,8.38
2023-05-11T22:00:10.216Z,8.31
2023-05-11T22:02:38.552Z,8.28
2023-05-11T22:05:05.640Z,8.29
2023-05-11T22:07:32.100Z,8.24
2023-05-11T22:09:58.411Z,8.26
2023-05-11T22:12:24.685Z,8.22
2023-05-11T22:14:50.954Z,8.16
2023-05-11T22:17:17.960Z,8.14
2023-05-11T22:19:44.237Z,8.17
2023-05-11T22:22:10.508Z,8.20
2023-05-11T22:24:36.979Z,8.16
2023-05-11T22:27:03.408Z,8.21
2023-05-11T22:29:30.027Z,8.20
2023-05-11T22:31:56.361Z,8.23
2023-05-11T22:34:23.638Z,8.13
2023-05-11T22:36:49.922Z,8.07
2023-05-11T22:39:16.243Z,8.08
2023-05-11T22:41:42.548Z,8.09
2023-05-11T22:44:08.942Z,8.10
2023-05-11T22:46:35.238Z,8.07
2023-05-11T22:49:01.579Z,8.04
2023-05-11T22:51:28.538Z,8.05
2023-05-11T22:58:11.147Z,8.02
2023-05-11T23:00:37.497Z,8.03
2023-05-11T23:03:04.185Z,7.94
2023-05-11T23:05:30.966Z,7.96
2023-05-11T23:07:59.068Z,8.01
2023-05-11T23:10:26.445Z,8.03
2023-05-11T23:13:43.086Z,8.09
2023-05-11T23:16:09.624Z,8.07
2023-05-11T23:18:36.293Z,8.01
2023-05-11T23:21:02.965Z,7.98
2023-05-11T23:23:29.288Z,8.00
2023-05-11T23:25:55.578Z,8.03
2023-05-11T23:28:22.559Z,8.05
2023-05-11T23:30:49.483Z,8.04
2023-05-11T23:33:15.900Z,8.07
2023-05-11T23:35:42.754Z,8.05
2023-05-11T23:38:17.865Z,8.02
2023-05-11T23:40:44.141Z,8.03
2023-05-11T23:43:10.418Z,8.00
2023-05-11T23:45:36.866Z,8.04
2023-05-11T23:48:04.564Z,7.98
2023-05-11T23:50:30.934Z,7.94
2023-05-11T23:52:57.264Z,7.93
2023-05-11T23:55:23.576Z,7.92
2023-05-11T23:57:49.888Z,7.97
